Time;durP1;ratioP1;P1;durP2;ratioP2;P2;SDS_P1;SDS_P2;PMS_P1;PMS_P2;Temp;Humidity;BMP_temperature;BMP_pressure;BME280_temperature;BME280_humidity;BME280_pressure;Samples;Min_cycle;Max_cycle;Signal;HPM_P1;HPM_P2
2022/04/29 00:01:57;;;;;;;11.33;4.67;;;7.30;99.90;;;;;;4940570;29;20239;-75
2022/04/29 00:04:43;;;;;;;6.53;3.90;;;7.30;99.90;;;;;;4940269;29;20202;-76
2022/04/29 00:07:27;;;;;;;8.67;4.83;;;7.20;99.90;;;;;;4938350;29;20226;-76
2022/04/29 00:10:14;;;;;;;10.00;4.50;;;7.20;99.90;;;;;;4940022;29;20247;-76
2022/04/29 00:12:59;;;;;;;11.90;4.23;;;7.20;99.90;;;;;;4930629;29;20234;-75
2022/04/29 00:15:45;;;;;;;8.43;4.93;;;7.20;99.90;;;;;;4940568;29;20206;-75
2022/04/29 00:18:29;;;;;;;8.67;4.40;;;7.20;99.90;;;;;;4946215;29;20174;-75
2022/04/29 00:21:14;;;;;;;9.13;4.87;;;7.20;99.90;;;;;;4945429;29;20303;-76
2022/04/29 00:23:59;;;;;;;10.50;4.93;;;7.10;99.90;;;;;;4941598;29;20193;-75
2022/04/29 00:26:44;;;;;;;10.03;4.90;;;7.10;99.90;;;;;;4945415;29;20170;-76
2022/04/29 00:29:28;;;;;;;10.33;5.17;;;7.00;99.90;;;;;;4944300;29;20261;-76
2022/04/29 00:32:13;;;;;;;8.60;5.50;;;7.00;99.90;;;;;;4944425;29;20212;-76
2022/04/29 00:34:57;;;;;;;11.93;5.50;;;7.00;99.90;;;;;;4938901;29;20270;-76
2022/04/29 00:37:46;;;;;;;13.10;5.23;;;6.90;99.90;;;;;;4945594;29;20605;-75
2022/04/29 00:40:31;;;;;;;8.10;4.70;;;6.90;99.90;;;;;;4943642;29;20230;-76
2022/04/29 00:43:15;;;;;;;13.37;5.20;;;6.80;99.90;;;;;;4943666;29;20178;-76
2022/04/29 00:46:00;;;;;;;11.63;5.20;;;6.80;99.90;;;;;;4949894;28;20201;-75
2022/04/29 00:48:44;;;;;;;9.50;5.13;;;6.80;99.90;;;;;;4948532;28;20214;-76
2022/04/29 00:51:28;;;;;;;9.73;5.37;;;6.80;99.90;;;;;;4943485;29;20325;-76
2022/04/29 00:54:18;;;;;;;11.70;5.53;;;6.80;99.90;;;;;;4945105;29;20190;-76
2022/04/29 00:57:06;;;;;;;12.57;4.97;;;6.80;99.90;;;;;;4948714;29;20173;-75
2022/04/29 00:59:55;;;;;;;8.07;4.97;;;6.80;99.90;;;;;;4947303;29;20182;-75
2022/04/29 01:02:41;;;;;;;11.77;5.07;;;6.80;99.90;;;;;;4951223;29;20240;-76
2022/04/29 01:05:26;;;;;;;11.30;5.13;;;6.80;99.90;;;;;;4941378;29;20179;-76
2022/04/29 01:08:11;;;;;;;11.90;5.53;;;6.80;99.90;;;;;;4939301;29;20197;-75
2022/04/29 01:10:56;;;;;;;9.57;5.40;;;6.80;99.90;;;;;;4946882;29;20270;-75
2022/04/29 01:13:41;;;;;;;10.70;5.07;;;6.80;99.90;;;;;;4947585;29;20632;-75
2022/04/29 01:16:25;;;;;;;14.67;6.00;;;6.80;99.90;;;;;;4943277;29;20214;-76
2022/04/29 01:19:09;;;;;;;10.43;5.77;;;6.80;99.90;;;;;;4946895;29;20209;-76
2022/04/29 01:21:53;;;;;;;13.50;5.90;;;6.80;99.90;;;;;;4946731;29;20233;-75
2022/04/29 01:24:38;;;;;;;9.80;5.93;;;6.80;99.90;;;;;;4933747;29;20313;-75
2022/04/29 01:27:22;;;;;;;14.30;6.67;;;6.70;99.90;;;;;;4928032;29;20183;-75
2022/04/29 01:30:11;;;;;;;10.83;6.33;;;6.70;99.90;;;;;;4930698;29;20221;-77
2022/04/29 01:32:56;;;;;;;13.33;5.70;;;6.70;99.90;;;;;;4942657;29;20235;-76
2022/04/29 01:35:41;;;;;;;14.90;7.10;;;6.70;99.90;;;;;;4941482;29;20189;-76
2022/04/29 01:38:26;;;;;;;13.90;6.87;;;6.70;99.90;;;;;;4949318;28;20243;-76
2022/04/29 01:41:11;;;;;;;10.43;6.33;;;6.70;99.90;;;;;;4938021;28;20303;-75
2022/04/29 01:43:56;;;;;;;14.57;6.07;;;6.60;99.90;;;;;;4946814;28;20194;-75
2022/04/29 01:46:43;;;;;;;12.77;7.33;;;6.60;99.90;;;;;;4959046;28;20638;-76
2022/04/29 01:49:27;;;;;;;13.63;7.17;;;6.50;99.90;;;;;;4954464;29;20226;-76
2022/04/29 01:52:12;;;;;;;13.50;6.03;;;6.50;99.90;;;;;;4928062;29;20179;-76
2022/04/29 01:54:56;;;;;;;12.50;6.60;;;6.40;99.90;;;;;;4928345;29;20186;-77
2022/04/29 01:57:40;;;;;;;11.90;6.10;;;6.40;99.90;;;;;;4937748;29;20226;-76
2022/04/29 02:00:24;;;;;;;12.17;6.50;;;6.40;99.90;;;;;;4944569;29;20634;-75
2022/04/29 02:03:09;;;;;;;8.23;5.83;;;6.30;99.90;;;;;;4945277;29;20310;-76
2022/04/29 02:05:53;;;;;;;10.67;6.60;;;6.30;99.90;;;;;;4940112;29;20326;-77
2022/04/29 02:08:38;;;;;;;13.13;6.60;;;6.20;99.90;;;;;;4946794;29;20257;-76
2022/04/29 02:11:22;;;;;;;8.90;5.83;;;6.20;99.90;;;;;;4943091;29;20762;-76
2022/04/29 02:14:07;;;;;;;10.27;6.07;;;6.20;99.90;;;;;;4945154;29;20171;-75
2022/04/29 02:16:52;;;;;;;13.77;6.77;;;6.20;99.90;;;;;;4933578;29;20201;-75
2022/04/29 02:19:37;;;;;;;10.83;6.10;;;6.20;99.90;;;;;;4946497;29;20269;-77
2022/04/29 02:22:21;;;;;;;11.33;6.73;;;6.10;99.90;;;;;;4946789;29;20214;-76
2022/04/29 02:25:06;;;;;;;15.63;6.77;;;6.10;99.90;;;;;;4939247;29;20201;-76
2022/04/29 02:27:51;;;;;;;17.13;6.60;;;6.10;99.90;;;;;;4937973;29;20264;-75
2022/04/29 02:30:35;;;;;;;11.90;7.07;;;6.20;99.90;;;;;;4935220;29;20320;-76
2022/04/29 02:33:19;;;;;;;12.90;6.40;;;6.10;99.90;;;;;;4946278;29;20626;-76
2022/04/29 02:36:05;;;;;;;12.50;6.70;;;6.10;99.90;;;;;;4936742;29;20228;-75
2022/04/29 02:38:50;;;;;;;13.03;6.73;;;6.00;99.90;;;;;;4944076;28;20198;-76
2022/04/29 02:41:34;;;;;;;12.33;6.53;;;6.00;99.90;;;;;;4938296;29;20225;-75
2022/04/29 02:44:18;;;;;;;14.83;6.63;;;6.00;99.90;;;;;;4947623;28;20230;-75
2022/04/29 02:47:08;;;;;;;11.37;6.30;;;6.00;99.90;;;;;;4939414;29;20256;-75
2022/04/29 02:49:53;;;;;;;14.83;6.73;;;5.90;99.90;;;;;;4926084;29;20269;-75
2022/04/29 02:52:37;;;;;;;13.57;7.00;;;5.90;99.90;;;;;;4937013;29;20268;-75
2022/04/29 02:55:21;;;;;;;17.40;7.37;;;5.90;99.90;;;;;;4937669;29;20197;-74
2022/04/29 02:58:05;;;;;;;15.43;7.03;;;5.80;99.90;;;;;;4937916;29;20190;-76
2022/04/29 03:00:49;;;;;;;13.40;7.03;;;5.80;99.90;;;;;;4945569;29;20205;-75
2022/04/29 03:03:33;;;;;;;14.73;6.77;;;5.70;99.90;;;;;;4939555;29;20210;-74
2022/04/29 03:06:18;;;;;;;11.77;6.93;;;5.60;99.90;;;;;;4943861;29;20260;-76
2022/04/29 03:09:03;;;;;;;10.53;7.03;;;5.60;99.90;;;;;;4939394;29;20246;-75
2022/04/29 03:11:50;;;;;;;12.67;6.40;;;5.60;99.90;;;;;;4944732;29;20217;-75
2022/04/29 03:14:34;;;;;;;11.40;6.70;;;5.50;99.90;;;;;;4926280;29;20182;-76
2022/04/29 03:20:22;;;;;;;16.97;6.90;;;5.50;99.90;;;;;;4957226;28;20224;-74
2022/04/29 03:23:08;;;;;;;14.23;6.57;;;5.50;99.90;;;;;;4938043;29;20206;-75
2022/04/29 03:25:52;;;;;;;13.73;7.07;;;5.50;99.90;;;;;;4941922;29;20205;-75
2022/04/29 03:28:37;;;;;;;11.53;6.60;;;5.50;99.90;;;;;;4949205;29;20213;-75
2022/04/29 03:31:21;;;;;;;11.90;6.77;;;5.50;99.90;;;;;;4939992;29;20222;-76
2022/04/29 03:34:05;;;;;;;10.73;6.53;;;5.50;99.90;;;;;;4943255;29;20252;-76
2022/04/29 03:36:50;;;;;;;15.27;6.70;;;5.50;99.90;;;;;;4939253;28;20194;-76
2022/04/29 03:39:35;;;;;;;13.87;9.13;;;5.40;99.90;;;;;;4948497;28;20259;-75
2022/04/29 03:42:20;;;;;;;9.43;6.37;;;5.40;99.90;;;;;;4954971;29;20242;-75
2022/04/29 03:45:05;;;;;;;16.93;7.13;;;5.40;99.90;;;;;;4944568;29;20197;-75
2022/04/29 03:47:50;;;;;;;11.90;6.77;;;5.40;99.90;;;;;;4944542;29;20271;-75
2022/04/29 03:50:34;;;;;;;16.07;6.90;;;5.30;99.90;;;;;;4942463;29;20254;-74
2022/04/29 03:53:22;;;;;;;11.37;6.60;;;5.30;99.90;;;;;;4944466;29;20202;-75
2022/04/29 03:56:07;;;;;;;10.07;6.90;;;5.30;99.90;;;;;;4951130;28;20197;-75
2022/04/29 03:58:51;;;;;;;12.67;6.37;;;5.20;99.90;;;;;;4945820;29;20209;-76
2022/04/29 04:01:35;;;;;;;16.07;7.40;;;5.20;99.90;;;;;;4945451;29;20250;-76
2022/04/29 04:04:20;;;;;;;9.50;6.90;;;5.20;99.90;;;;;;4943092;28;20202;-76
2022/04/29 04:07:04;;;;;;;17.60;7.33;;;5.20;99.90;;;;;;4946726;29;20186;-77
2022/04/29 04:09:49;;;;;;;11.70;7.47;;;5.20;99.90;;;;;;4955556;28;20592;-76
2022/04/29 04:12:43;;;;;;;12.13;6.70;;;5.20;99.90;;;;;;4952373;28;20220;-76
2022/04/29 04:15:27;;;;;;;11.00;6.93;;;5.20;99.90;;;;;;4941500;29;20235;-76
2022/04/29 04:18:11;;;;;;;13.20;7.03;;;5.20;99.90;;;;;;4956959;28;20201;-76
2022/04/29 04:20:56;;;;;;;12.40;6.90;;;5.10;99.90;;;;;;4948512;28;20271;-76
2022/04/29 04:23:40;;;;;;;12.87;7.37;;;5.10;99.90;;;;;;4941234;28;20610;-76
2022/04/29 04:26:24;;;;;;;15.23;8.00;;;5.20;99.90;;;;;;4946146;28;20210;-76
2022/04/29 04:29:08;;;;;;;9.50;7.00;;;5.20;99.90;;;;;;4961677;28;20290;-75
2022/04/29 04:31:53;;;;;;;18.40;7.37;;;5.20;99.90;;;;;;4941064;28;20273;-74
2022/04/29 04:34:53;;;;;;;11.73;7.33;;;5.20;99.90;;;;;;4950340;28;20265;-76
2022/04/29 04:37:37;;;;;;;12.87;7.87;;;5.20;99.90;;;;;;4955265;28;20216;-75
2022/04/29 04:40:21;;;;;;;16.20;8.30;;;5.20;99.90;;;;;;4946993;28;20220;-76
2022/04/29 04:43:05;;;;;;;16.00;7.83;;;5.20;99.90;;;;;;4950350;28;20254;-77
2022/04/29 04:46:12;;;;;;;16.27;7.87;;;5.20;99.90;;;;;;4943151;28;20194;-75
2022/04/29 04:48:56;;;;;;;15.90;7.83;;;5.20;99.90;;;;;;4952842;28;20287;-75
2022/04/29 04:51:40;;;;;;;18.97;8.73;;;5.20;99.90;;;;;;4947362;28;20248;-75
2022/04/29 04:54:25;;;;;;;10.77;7.67;;;5.20;99.90;;;;;;4956324;28;20279;-76
2022/04/29 04:57:10;;;;;;;15.57;8.30;;;5.20;99.90;;;;;;4944598;29;20222;-76
2022/04/29 04:59:54;;;;;;;12.53;7.70;;;5.20;99.90;;;;;;4945799;29;20203;-74
2022/04/29 05:02:40;;;;;;;15.10;8.43;;;5.20;99.90;;;;;;4962279;29;20218;-75
2022/04/29 05:05:24;;;;;;;13.60;8.07;;;5.20;99.90;;;;;;4960961;28;20194;-76
2022/04/29 05:08:08;;;;;;;19.77;8.43;;;5.30;99.90;;;;;;4951806;28;20217;-75
2022/04/29 05:10:53;;;;;;;15.40;8.63;;;5.30;99.90;;;;;;4949960;28;20294;-75
2022/04/29 05:13:38;;;;;;;21.10;8.87;;;5.30;99.90;;;;;;4934722;29;20200;-77
2022/04/29 05:16:22;;;;;;;15.73;8.97;;;5.30;99.90;;;;;;4942453;28;20283;-76
2022/04/29 05:19:06;;;;;;;17.67;8.87;;;5.30;99.90;;;;;;4954548;28;20196;-75
2022/04/29 05:21:51;;;;;;;16.00;9.00;;;5.40;99.90;;;;;;4948196;29;20265;-75
2022/04/29 05:24:35;;;;;;;15.63;8.60;;;5.40;99.90;;;;;;4952191;28;20241;-75
2022/04/29 05:27:19;;;;;;;14.37;9.60;;;5.50;99.90;;;;;;4956791;28;20674;-75
2022/04/29 05:30:05;;;;;;;22.03;9.67;;;5.50;99.90;;;;;;4931747;29;20247;-76
2022/04/29 05:32:49;;;;;;;25.63;9.67;;;5.60;99.90;;;;;;4943097;28;20679;-76
2022/04/29 05:35:35;;;;;;;25.93;9.37;;;5.70;99.90;;;;;;4946117;28;20254;-74
2022/04/29 05:38:20;;;;;;;20.03;10.07;;;5.70;99.90;;;;;;4940976;29;20215;-76
2022/04/29 05:44:08;;;;;;;18.00;9.93;;;5.80;99.90;;;;;;4959617;28;20212;-76
2022/04/29 05:46:53;;;;;;;20.30;10.27;;;5.90;99.90;;;;;;4943098;29;20250;-76
2022/04/29 05:49:38;;;;;;;22.73;10.63;;;6.00;99.90;;;;;;4945018;29;20347;-75
2022/04/29 05:52:23;;;;;;;25.07;10.40;;;6.00;99.90;;;;;;4961736;28;20237;-75
2022/04/29 05:55:08;;;;;;;17.67;9.57;;;6.10;99.90;;;;;;4945949;29;20586;-75
2022/04/29 05:57:52;;;;;;;23.17;9.57;;;6.20;99.90;;;;;;4942567;29;20194;-75
2022/04/29 06:00:37;;;;;;;16.43;9.10;;;6.30;99.90;;;;;;4945988;28;20225;-75
2022/04/29 06:03:21;;;;;;;15.70;7.67;;;6.40;99.90;;;;;;4963201;28;20252;-75
2022/04/29 06:06:05;;;;;;;15.00;7.03;;;6.50;99.90;;;;;;4943740;29;20202;-74
2022/04/29 06:08:49;;;;;;;19.53;8.67;;;6.60;99.90;;;;;;4943015;29;20241;-75
2022/04/29 06:11:33;;;;;;;19.63;7.90;;;6.70;99.90;;;;;;4959831;28;20281;-74
2022/04/29 06:14:17;;;;;;;12.80;6.80;;;6.80;99.90;;;;;;4940422;28;20274;-75
2022/04/29 06:17:02;;;;;;;17.77;8.55;;;6.90;99.90;;;;;;4958944;28;20484;-74
2022/04/29 06:19:46;;;;;;;11.50;7.33;;;7.00;99.90;;;;;;4948026;28;20250;-75
2022/04/29 06:22:31;;;;;;;14.90;7.10;;;7.10;99.90;;;;;;4964402;28;20177;-75
2022/04/29 06:25:18;;;;;;;9.80;5.97;;;7.20;99.90;;;;;;4940811;29;20202;-76
2022/04/29 06:28:03;;;;;;;12.27;6.43;;;7.30;99.90;;;;;;4969401;23;20240;-76
2022/04/29 06:30:47;;;;;;;16.63;6.17;;;7.40;99.90;;;;;;4982902;28;20284;-75
2022/04/29 06:33:33;;;;;;;12.13;5.40;;;7.50;99.90;;;;;;4972982;28;20276;-76
2022/04/29 06:36:18;;;;;;;11.87;4.77;;;7.60;99.90;;;;;;4978735;28;20197;-76
2022/04/29 06:39:02;;;;;;;11.90;4.90;;;7.70;99.90;;;;;;4976826;28;20681;-75
2022/04/29 06:41:46;;;;;;;6.90;4.77;;;7.70;99.90;;;;;;4978423;28;20220;-76
2022/04/29 06:44:31;;;;;;;10.67;6.13;;;7.80;99.90;;;;;;4980286;28;20225;-76
2022/04/29 06:47:15;;;;;;;8.50;4.73;;;7.80;99.90;;;;;;4980247;28;20200;-75
2022/04/29 06:50:00;;;;;;;9.63;4.80;;;7.90;99.90;;;;;;4982295;28;20225;-76
2022/04/29 06:52:44;;;;;;;13.03;5.97;;;7.90;99.90;;;;;;4968066;28;20246;-76
2022/04/29 06:55:28;;;;;;;7.57;4.87;;;7.90;99.90;;;;;;4974313;28;20712;-76
2022/04/29 06:58:13;;;;;;;13.32;6.45;;;8.00;99.90;;;;;;4973034;28;20457;-76
2022/04/29 07:00:57;;;;;;;9.03;6.13;;;8.10;99.90;;;;;;4976085;28;20245;-76
2022/04/29 07:03:43;;;;;;;13.30;6.63;;;8.10;99.90;;;;;;4977744;28;20188;-76
2022/04/29 07:06:28;;;;;;;14.80;6.53;;;8.20;99.90;;;;;;4980040;28;20291;-75
2022/04/29 07:09:12;;;;;;;13.57;6.53;;;8.30;99.90;;;;;;4990270;28;20224;-76
2022/04/29 07:11:56;;;;;;;13.83;6.83;;;8.30;99.90;;;;;;4972938;28;20252;-75
2022/04/29 07:14:41;;;;;;;14.07;6.77;;;8.40;99.90;;;;;;4980932;28;20239;-75
2022/04/29 07:17:25;;;;;;;10.90;5.30;;;8.50;99.90;;;;;;4970784;28;20244;-76
2022/04/29 07:20:11;;;;;;;11.10;5.00;;;8.60;99.90;;;;;;4981221;28;20236;-76
2022/04/29 07:22:56;;;;;;;8.47;5.10;;;8.70;99.90;;;;;;4978582;28;20196;-78
2022/04/29 07:25:41;;;;;;;12.23;7.35;;;8.70;99.90;;;;;;4973516;28;20498;-75
2022/04/29 07:28:25;;;;;;;11.75;6.78;;;8.90;99.90;;;;;;4962768;28;20427;-77
2022/04/29 07:31:12;;;;;;;11.00;5.90;;;9.00;99.90;;;;;;4968557;28;20301;-77
2022/04/29 07:33:57;;;;;;;10.63;4.60;;;9.10;99.90;;;;;;4977254;28;20196;-76
2022/04/29 07:42:49;;;;;;;11.53;4.33;;;9.30;99.90;;;;;;4987146;28;20204;-75
2022/04/29 07:45:38;;;;;;;12.83;4.53;;;9.30;99.90;;;;;;4978498;28;20191;-75
2022/04/29 07:48:26;;;;;;;10.20;5.33;;;9.30;99.90;;;;;;4977315;28;20201;-76
2022/04/29 07:51:11;;;;;;;11.67;5.67;;;9.30;99.90;;;;;;4969722;28;20802;-77
2022/04/29 07:53:56;;;;;;;13.30;5.97;;;9.40;99.90;;;;;;4968984;28;20303;-77
2022/04/29 07:56:41;;;;;;;7.80;5.40;;;9.40;99.90;;;;;;4967992;28;20205;-78
2022/04/29 07:59:25;;;;;;;10.97;6.33;;;9.40;99.90;;;;;;4968538;28;20192;-76
2022/04/29 08:02:10;;;;;;;9.93;7.00;;;9.50;99.90;;;;;;4969136;28;20196;-76
2022/04/29 08:04:54;;;;;;;13.30;7.57;;;9.50;99.90;;;;;;4966464;28;20631;-76
2022/04/29 08:07:38;;;;;;;12.83;6.47;;;9.50;99.90;;;;;;4964370;28;20225;-76
2022/04/29 08:10:23;;;;;;;9.13;6.60;;;9.50;99.90;;;;;;4968582;28;20232;-76
2022/04/29 08:13:07;;;;;;;11.90;6.90;;;9.50;99.90;;;;;;4964415;28;20189;-75
2022/04/29 08:15:52;;;;;;;16.83;7.83;;;9.50;99.90;;;;;;4970031;28;20177;-75
2022/04/29 08:18:37;;;;;;;10.00;6.97;;;9.50;99.90;;;;;;4967547;28;20251;-76
2022/04/29 08:21:28;;;;;;;11.53;6.43;;;9.60;99.90;;;;;;4966890;28;20224;-76
2022/04/29 08:24:13;;;;;;;10.20;6.23;;;9.70;99.90;;;;;;4968558;28;20243;-76
2022/04/29 08:26:58;;;;;;;9.77;6.50;;;9.60;99.90;;;;;;4968019;28;20189;-78
2022/04/29 08:29:42;;;;;;;14.93;7.00;;;9.70;99.90;;;;;;4967975;28;20225;-77
2022/04/29 08:32:27;;;;;;;11.23;6.23;;;9.70;99.90;;;;;;4971562;28;20236;-78
2022/04/29 08:35:13;;;;;;;11.63;5.37;;;9.80;99.90;;;;;;4972077;28;20199;-77
2022/04/29 08:37:58;;;;;;;7.87;5.00;;;9.80;99.90;;;;;;4968872;28;20213;-78
2022/04/29 08:40:44;;;;;;;9.70;5.50;;;9.90;99.90;;;;;;4987190;28;20228;-77
2022/04/29 08:43:32;;;;;;;12.20;5.17;;;10.00;99.90;;;;;;4968227;28;20272;-79
2022/04/29 08:46:21;;;;;;;11.00;5.10;;;10.10;99.90;;;;;;4967767;28;20205;-75
2022/04/29 08:49:07;;;;;;;8.97;4.67;;;10.10;99.90;;;;;;4968274;28;20296;-78
2022/04/29 08:51:53;;;;;;;11.93;5.37;;;10.20;99.90;;;;;;4971176;28;20216;-75
2022/04/29 09:00:46;;;;;;;7.90;4.17;;;10.40;99.90;;;;;;4981513;28;20620;-77
2022/04/29 09:03:30;;;;;;;9.43;4.40;;;10.40;99.90;;;;;;4970160;28;20205;-76
2022/04/29 09:06:17;;;;;;;7.27;4.53;;;10.60;99.90;;;;;;4971483;28;20284;-75
2022/04/29 09:09:09;;;;;;;6.63;4.50;;;10.60;99.90;;;;;;4969828;28;20213;-75
2022/04/29 09:12:16;;;;;;;8.03;4.20;;;10.70;99.90;;;;;;4968294;28;20209;-76
2022/04/29 09:15:14;;;;;;;7.37;3.57;;;10.80;99.90;;;;;;4968903;28;20196;-75
2022/04/29 09:17:58;;;;;;;10.60;4.10;;;10.80;99.90;;;;;;4969125;28;20224;-75
2022/04/29 09:20:42;;;;;;;6.33;3.33;;;11.00;99.90;;;;;;4971539;28;20291;-76
2022/04/29 09:23:28;;;;;;;9.30;3.33;;;11.00;99.90;;;;;;4972709;28;20256;-76
2022/04/29 09:26:35;;;;;;;7.03;3.13;;;11.10;99.90;;;;;;4971131;28;20200;-75
2022/04/29 09:29:20;;;;;;;6.07;3.30;;;11.10;99.90;;;;;;4971336;28;20224;-75
2022/04/29 09:32:05;;;;;;;4.13;3.17;;;11.20;99.90;;;;;;4989668;28;20225;-76
2022/04/29 09:34:55;;;;;;;6.33;3.53;;;11.30;99.90;;;;;;4974281;28;20177;-74
2022/04/29 09:39:26;;;;;;;4.50;2.90;;;11.30;99.90;;;;;;4965276;28;20254;-75
2022/04/29 09:40:44;;;;;;;5.27;3.13;;;11.30;99.90;;;;;;4986157;28;20221;-76
2022/04/29 09:43:34;;;;;;;7.77;3.20;;;11.30;99.90;;;;;;4970774;28;20181;-75
2022/04/29 09:46:23;;;;;;;6.50;3.40;;;11.40;99.90;;;;;;4965480;28;20316;-74
2022/04/29 09:49:10;;;;;;;5.97;3.03;;;11.40;99.90;;;;;;4967254;28;20263;-75
2022/04/29 09:51:55;;;;;;;7.43;3.60;;;11.40;99.90;;;;;;4968168;28;20264;-75
2022/04/29 09:54:39;;;;;;;6.70;3.10;;;11.50;99.90;;;;;;4975277;28;20241;-76
2022/04/29 09:57:23;;;;;;;6.33;2.97;;;11.50;99.90;;;;;;4967871;28;20244;-75
2022/04/29 10:00:10;;;;;;;4.10;2.77;;;11.50;99.90;;;;;;4970414;28;20266;-75
2022/04/29 10:02:55;;;;;;;6.17;3.10;;;11.50;99.90;;;;;;4969084;28;20219;-76
2022/04/29 10:05:42;;;;;;;4.67;2.93;;;11.50;99.90;;;;;;4974484;28;20234;-75
2022/04/29 10:08:29;;;;;;;5.63;3.00;;;11.60;99.90;;;;;;4964920;28;20685;-75
2022/04/29 10:11:14;;;;;;;7.13;3.20;;;11.70;99.90;;;;;;4963962;28;20221;-75
2022/04/29 10:14:02;;;;;;;6.67;2.73;;;11.80;99.90;;;;;;4963665;28;20200;-75
2022/04/29 10:21:15;;;;;;;5.43;2.73;;;11.80;99.90;;;;;;4979024;28;20284;-75
2022/04/29 10:23:10;;;;;;;7.63;3.27;;;12.00;99.90;;;;;;4982088;28;20205;-76
2022/04/29 10:25:55;;;;;;;5.20;2.80;;;12.00;99.90;;;;;;4965966;28;20197;-75
2022/04/29 10:28:39;;;;;;;7.27;3.30;;;12.00;99.90;;;;;;4965028;28;20291;-75
2022/04/29 10:31:24;;;;;;;6.80;3.07;;;11.90;99.90;;;;;;4966173;28;20626;-75
2022/04/29 10:34:28;;;;;;;5.20;3.17;;;12.00;99.90;;;;;;4966087;28;20312;-76
2022/04/29 10:37:13;;;;;;;5.77;3.40;;;12.00;99.90;;;;;;4967558;28;20193;-76
2022/04/29 10:40:11;;;;;;;6.13;3.47;;;12.10;99.90;;;;;;4962490;28;20771;-75
2022/04/29 10:43:08;;;;;;;4.93;3.50;;;12.10;99.90;;;;;;4965856;28;20193;-75
2022/04/29 10:46:15;;;;;;;6.97;2.90;;;12.20;99.90;;;;;;4966795;28;20232;-75
2022/04/29 10:49:20;;;;;;;5.67;3.37;;;12.20;99.90;;;;;;4964846;28;20232;-76
2022/04/29 10:52:04;;;;;;;8.77;3.40;;;12.30;99.90;;;;;;4963456;28;20555;-75
2022/04/29 10:54:56;;;;;;;6.20;3.37;;;12.30;99.90;;;;;;4979549;28;20670;-75
2022/04/29 10:57:41;;;;;;;9.30;4.50;;;12.40;99.90;;;;;;4976379;28;20224;-75
2022/04/29 11:00:27;;;;;;;4.73;3.00;;;12.40;99.90;;;;;;4978410;28;20272;-76
2022/04/29 11:03:35;;;;;;;4.93;2.70;;;12.50;99.90;;;;;;4962266;28;20232;-75
2022/04/29 11:06:20;;;;;;;8.87;3.30;;;12.50;99.90;;;;;;4960617;28;20575;-75
2022/04/29 11:09:31;;;;;;;6.17;3.37;;;12.60;99.90;;;;;;4963392;28;20200;-75
2022/04/29 11:12:32;;;;;;;8.87;3.17;;;12.60;99.90;;;;;;4962241;28;20216;-75
2022/04/29 11:15:20;;;;;;;8.43;3.50;;;12.60;99.90;;;;;;4964016;28;20668;-75
2022/04/29 11:18:14;;;;;;;4.73;3.60;;;12.60;99.90;;;;;;4979393;28;20196;-76
2022/04/29 11:20:59;;;;;;;5.53;3.57;;;12.70;99.90;;;;;;4963706;28;20220;-75
2022/04/29 11:26:57;;;;;;;9.50;3.77;;;12.80;99.90;;;;;;4978445;28;20256;-75
2022/04/29 11:29:42;;;;;;;9.30;3.87;;;12.80;99.90;;;;;;4963677;28;20221;-75
2022/04/29 11:32:27;;;;;;;11.37;3.93;;;12.70;99.90;;;;;;4961735;28;20201;-76
2022/04/29 11:35:11;;;;;;;8.23;3.80;;;12.70;99.90;;;;;;4962890;28;20194;-76
2022/04/29 11:37:56;;;;;;;7.70;3.37;;;12.70;99.90;;;;;;4960636;28;20189;-75
2022/04/29 11:40:40;;;;;;;3.57;3.27;;;12.70;99.90;;;;;;4960294;28;20220;-75
2022/04/29 11:43:24;;;;;;;8.43;3.30;;;12.60;99.90;;;;;;4975983;28;20245;-75
2022/04/29 11:46:09;;;;;;;4.00;3.40;;;12.70;99.90;;;;;;4978881;28;20208;-75
2022/04/29 11:48:57;;;;;;;7.47;3.53;;;12.70;99.90;;;;;;4977089;28;20178;-76
2022/04/29 11:51:41;;;;;;;6.57;3.67;;;12.70;99.90;;;;;;4965533;28;20283;-74
2022/04/29 11:54:25;;;;;;;6.10;3.47;;;12.70;99.90;;;;;;4963876;28;20177;-75
2022/04/29 11:57:14;;;;;;;6.23;3.33;;;12.80;99.90;;;;;;4963582;28;20233;-75
2022/04/29 12:00:00;;;;;;;6.50;3.80;;;12.80;99.90;;;;;;4967025;28;20247;-75
2022/04/29 12:02:47;;;;;;;7.23;3.43;;;12.90;99.90;;;;;;4965855;28;20217;-75
2022/04/29 12:05:32;;;;;;;4.63;3.13;;;13.00;99.90;;;;;;4963944;28;20204;-75
2022/04/29 12:08:17;;;;;;;9.77;3.77;;;13.10;99.90;;;;;;4966173;28;20269;-75
2022/04/29 12:11:01;;;;;;;5.67;3.70;;;13.10;99.90;;;;;;4977997;28;20240;-75
2022/04/29 12:13:45;;;;;;;4.40;3.43;;;13.20;99.90;;;;;;4965176;28;20197;-75
2022/04/29 12:16:30;;;;;;;10.13;3.80;;;13.30;99.90;;;;;;4962978;28;20200;-75
2022/04/29 12:19:19;;;;;;;13.20;3.93;;;13.40;99.90;;;;;;4961338;28;20209;-75
2022/04/29 12:22:03;;;;;;;6.33;3.80;;;13.40;99.90;;;;;;4973643;28;20225;-75
2022/04/29 12:24:48;;;;;;;8.13;3.33;;;13.40;99.90;;;;;;4960081;28;20281;-76
2022/04/29 12:27:32;;;;;;;6.23;3.20;;;13.40;99.90;;;;;;4959673;28;20191;-75
2022/04/29 12:37:11;;;;;;;4.97;3.63;;;13.50;99.90;;;;;;4973456;28;20368;-76
2022/04/29 12:40:08;;;;;;;7.23;3.30;;;13.60;99.90;;;;;;4962134;28;20197;-76
2022/04/29 12:42:52;;;;;;;5.47;3.90;;;13.60;99.90;;;;;;4960197;28;20558;-76
2022/04/29 12:45:36;;;;;;;7.37;3.30;;;13.60;99.90;;;;;;4975977;28;20339;-76
2022/04/29 12:48:27;;;;;;;5.10;3.47;;;13.70;99.90;;;;;;4960311;28;20195;-76
2022/04/29 12:51:32;;;;;;;9.53;3.53;;;13.70;99.90;;;;;;4978626;28;20260;-75
2022/04/29 12:54:25;;;;;;;3.60;3.30;;;13.60;99.90;;;;;;4978809;28;20205;-75
2022/04/29 12:57:09;;;;;;;6.30;3.63;;;13.60;99.90;;;;;;4964430;28;20225;-75
2022/04/29 12:59:59;;;;;;;7.77;3.83;;;13.60;99.90;;;;;;4965937;28;20300;-75
2022/04/29 13:02:44;;;;;;;6.53;3.57;;;13.60;99.90;;;;;;4964397;28;20236;-75
2022/04/29 13:05:29;;;;;;;7.40;4.47;;;13.70;99.90;;;;;;4980304;28;20704;-75
2022/04/29 13:08:14;;;;;;;7.60;4.10;;;13.70;99.90;;;;;;4983865;28;20189;-75
2022/04/29 13:11:03;;;;;;;6.43;4.17;;;13.70;99.90;;;;;;4976161;28;20220;-76
2022/04/29 13:13:49;;;;;;;8.10;4.13;;;13.80;99.90;;;;;;4967102;28;20180;-76
2022/04/29 13:16:34;;;;;;;5.33;4.27;;;13.70;99.90;;;;;;4965469;28;20672;-76
2022/04/29 13:19:18;;;;;;;5.67;3.87;;;13.60;99.90;;;;;;4966668;28;20247;-75
2022/04/29 13:22:02;;;;;;;10.50;4.20;;;13.70;99.90;;;;;;4978619;28;20248;-75
2022/04/29 13:24:46;;;;;;;5.70;3.70;;;13.70;99.90;;;;;;4965971;28;20195;-76
2022/04/29 13:27:31;;;;;;;7.20;3.90;;;13.80;99.90;;;;;;4967995;28;20244;-76
2022/04/29 13:30:16;;;;;;;7.23;4.00;;;13.80;99.90;;;;;;4978747;28;20248;-76
2022/04/29 13:33:01;;;;;;;6.90;3.63;;;13.80;99.90;;;;;;4981141;28;20197;-76
2022/04/29 13:35:46;;;;;;;5.57;3.80;;;13.80;99.90;;;;;;4965995;28;20264;-76
2022/04/29 13:38:31;;;;;;;10.13;4.03;;;13.80;99.90;;;;;;4979420;28;20192;-76
2022/04/29 13:41:16;;;;;;;10.80;3.60;;;13.70;99.90;;;;;;4975489;28;20237;-76
2022/04/29 13:44:00;;;;;;;6.70;3.30;;;13.70;99.90;;;;;;4965208;28;20245;-76
2022/04/29 13:46:44;;;;;;;5.70;3.03;;;13.80;99.90;;;;;;4965857;28;20204;-76
2022/04/29 13:49:28;;;;;;;9.97;3.70;;;13.80;99.90;;;;;;4965384;28;20221;-76
2022/04/29 13:55:16;;;;;;;4.97;3.37;;;13.80;99.90;;;;;;4982587;28;20252;-76
2022/04/29 13:58:02;;;;;;;4.40;3.13;;;13.90;99.90;;;;;;4979697;28;20200;-76
2022/04/29 14:00:48;;;;;;;6.83;3.00;;;14.00;99.90;;;;;;4965348;28;20216;-76
2022/04/29 14:03:33;;;;;;;3.97;3.43;;;14.00;99.90;;;;;;4964736;28;20204;-76
2022/04/29 14:06:17;;;;;;;7.10;3.27;;;14.00;99.90;;;;;;4967762;28;20186;-76
2022/04/29 14:09:01;;;;;;;5.97;3.70;;;14.00;99.90;;;;;;4964878;28;20190;-76
2022/04/29 14:11:46;;;;;;;8.53;3.33;;;14.00;99.90;;;;;;4963298;28;20351;-76
2022/04/29 14:14:31;;;;;;;6.63;3.00;;;14.10;99.90;;;;;;4965768;28;20204;-76
2022/04/29 14:17:15;;;;;;;6.63;3.57;;;14.10;99.90;;;;;;4966278;28;20189;-77
2022/04/29 14:20:00;;;;;;;7.93;3.73;;;14.10;99.90;;;;;;4981189;28;20212;-76
2022/04/29 14:22:47;;;;;;;4.73;3.17;;;14.20;99.90;;;;;;4967567;28;20217;-77
2022/04/29 14:25:32;;;;;;;6.47;3.00;;;14.30;99.90;;;;;;4978887;28;20253;-77
2022/04/29 14:28:16;;;;;;;4.13;2.80;;;14.30;99.90;;;;;;4983342;28;20208;-77
2022/04/29 14:31:01;;;;;;;8.13;2.90;;;14.40;99.90;;;;;;4968957;28;20309;-77
2022/04/29 14:33:46;;;;;;;3.20;2.90;;;14.40;99.90;;;;;;4968472;28;20351;-77
2022/04/29 14:36:32;;;;;;;3.90;2.70;;;14.40;99.90;;;;;;4971409;28;20316;-77
2022/04/29 14:39:16;;;;;;;4.97;3.80;;;14.50;99.90;;;;;;4965646;28;20753;-77
2022/04/29 14:42:01;;;;;;;3.87;3.03;;;14.50;99.90;;;;;;4963319;28;20904;-76
2022/04/29 14:44:45;;;;;;;5.03;2.97;;;14.50;99.90;;;;;;4982213;28;20205;-76
2022/04/29 14:47:33;;;;;;;5.30;2.80;;;14.50;99.90;;;;;;4983121;28;20245;-77
2022/04/29 14:50:18;;;;;;;12.67;2.70;;;14.50;99.90;;;;;;4966306;28;20321;-76
2022/04/29 14:53:02;;;;;;;7.47;2.90;;;14.40;99.90;;;;;;4966534;28;20188;-76
2022/04/29 14:55:46;;;;;;;7.97;3.10;;;14.30;99.90;;;;;;4962910;28;20186;-76
2022/04/29 14:58:31;;;;;;;5.70;3.00;;;14.20;99.90;;;;;;4964822;28;20213;-76
2022/04/29 15:01:17;;;;;;;6.37;3.50;;;14.10;99.90;;;;;;4965655;28;20224;-76